createdAt,value
2018-07-14T00:00:56.409Z,18.61
2018-07-14T00:01:56.394Z,18.64
2018-07-14T00:02:56.378Z,18.60
2018-07-14T00:03:56.374Z,18.61
2018-07-14T00:04:56.353Z,18.52
2018-07-14T00:05:56.341Z,18.52
2018-07-14T00:06:56.324Z,18.55
2018-07-14T00:07:56.309Z,18.48
2018-07-14T00:08:56.307Z,18.48
2018-07-14T00:09:56.307Z,18.49
2018-07-14T00:10:56.276Z,18.37
2018-07-14T00:11:56.258Z,18.43
2018-07-14T00:12:56.239Z,18.39
2018-07-14T00:13:56.236Z,18.43
2018-07-14T00:14:56.220Z,18.43
2018-07-14T00:15:56.196Z,18.41
2018-07-14T00:16:56.183Z,18.30
2018-07-14T00:17:56.172Z,18.34
2018-07-14T00:18:56.164Z,18.26
2018-07-14T00:19:56.143Z,18.27
2018-07-14T00:20:56.128Z,18.24
2018-07-14T00:21:56.117Z,18.27
2018-07-14T00:22:56.100Z,18.34
2018-07-14T00:23:56.085Z,18.41
2018-07-14T00:24:56.071Z,18.24
2018-07-14T00:25:56.057Z,18.27
2018-07-14T00:26:56.048Z,18.28
2018-07-14T00:27:56.029Z,18.28
2018-07-14T00:28:56.014Z,18.34
2018-07-14T00:29:56.001Z,18.28
2018-07-14T00:30:55.987Z,18.33
2018-07-14T00:31:55.972Z,18.19
2018-07-14T00:32:55.958Z,18.28
2018-07-14T00:33:55.943Z,18.18
2018-07-14T00:34:55.930Z,18.09
2018-07-14T00:35:55.915Z,18.11
2018-07-14T00:36:55.904Z,17.98
2018-07-14T00:37:55.890Z,17.94
2018-07-14T00:38:55.876Z,18.00
2018-07-14T00:39:55.866Z,18.08
2018-07-14T00:40:55.850Z,17.98
2018-07-14T00:41:55.834Z,18.00
2018-07-14T00:42:55.822Z,18.05
2018-07-14T00:43:55.804Z,17.98
2018-07-14T00:44:55.789Z,17.97
2018-07-14T00:45:55.776Z,17.91
2018-07-14T00:46:55.761Z,17.90
2018-07-14T00:47:55.748Z,17.86
2018-07-14T00:48:55.736Z,17.78
2018-07-14T00:49:55.726Z,17.72
2018-07-14T00:50:55.704Z,17.79
2018-07-14T00:51:55.689Z,17.87
2018-07-14T00:52:55.675Z,17.73
2018-07-14T00:53:55.672Z,17.78
2018-07-14T00:54:55.648Z,17.72
2018-07-14T00:55:55.735Z,17.78
2018-07-14T00:56:55.620Z,17.76
2018-07-14T00:57:55.605Z,17.78
2018-07-14T00:58:55.592Z,17.75
2018-07-14T00:59:55.576Z,17.76
2018-07-14T01:00:55.615Z,17.82
2018-07-14T01:01:55.549Z,17.59
2018-07-14T01:02:55.539Z,17.63
2018-07-14T01:03:55.521Z,17.56
2018-07-14T01:04:55.506Z,17.65
2018-07-14T01:05:55.492Z,17.65
2018-07-14T01:06:55.482Z,17.60
2018-07-14T01:07:55.471Z,17.60
2018-07-14T01:08:55.449Z,17.60
2018-07-14T01:09:55.435Z,17.59
2018-07-14T01:10:55.421Z,17.59
2018-07-14T01:11:55.405Z,17.65
2018-07-14T01:12:55.392Z,17.65
2018-07-14T01:13:55.379Z,17.59
2018-07-14T01:14:55.362Z,17.59
2018-07-14T01:15:55.348Z,17.49
2018-07-14T01:16:55.343Z,17.59
2018-07-14T01:17:55.321Z,17.66
2018-07-14T01:18:55.306Z,17.53
2018-07-14T01:19:55.289Z,17.46
2018-07-14T01:20:55.286Z,17.52
2018-07-14T01:21:55.264Z,17.56
2018-07-14T01:22:55.253Z,17.54
2018-07-14T01:23:55.236Z,17.44
2018-07-14T01:24:55.228Z,17.39
2018-07-14T01:25:55.206Z,17.35
2018-07-14T01:26:55.190Z,17.37
2018-07-14T01:27:55.175Z,17.41
2018-07-14T01:28:55.161Z,17.32
2018-07-14T01:29:55.151Z,17.30
2018-07-14T01:30:55.133Z,17.28
2018-07-14T01:31:55.124Z,17.37
2018-07-14T01:32:55.126Z,17.35
2018-07-14T01:33:55.090Z,17.38
2018-07-14T01:34:55.076Z,17.30
2018-07-14T01:35:55.060Z,17.24
2018-07-14T01:36:55.060Z,17.32
2018-07-14T01:37:55.038Z,17.42
2018-07-14T01:38:55.018Z,17.37
2018-07-14T01:39:55.001Z,17.37
2018-07-14T01:40:54.988Z,17.34
2018-07-14T01:41:55.040Z,17.30
2018-07-14T01:42:54.959Z,17.28
2018-07-14T01:43:54.943Z,17.31
2018-07-14T01:44:54.932Z,17.23
2018-07-14T01:45:54.923Z,17.27
2018-07-14T01:46:54.902Z,17.19
2018-07-14T01:47:54.885Z,17.17
2018-07-14T01:48:54.871Z,17.27
2018-07-14T01:49:54.857Z,17.23
2018-07-14T01:50:54.842Z,17.16
2018-07-14T01:51:54.827Z,17.22
2018-07-14T01:52:54.812Z,17.16
2018-07-14T01:53:54.798Z,17.16
2018-07-14T01:54:54.783Z,17.19
2018-07-14T01:55:54.767Z,17.07
2018-07-14T01:56:54.760Z,17.09
2018-07-14T01:57:54.742Z,17.05
2018-07-14T01:58:54.725Z,17.01
2018-07-14T01:59:54.711Z,17.02
2018-07-14T02:00:54.702Z,17.05
2018-07-14T02:01:54.681Z,17.12
2018-07-14T02:02:54.669Z,17.05
2018-07-14T02:03:54.651Z,17.12
2018-07-14T02:04:54.637Z,17.07
2018-07-14T02:05:54.624Z,17.09
2018-07-14T02:06:54.617Z,17.04
2018-07-14T02:07:54.592Z,17.09
2018-07-14T02:08:54.576Z,17.01
2018-07-14T02:09:54.564Z,16.95
2018-07-14T02:10:54.548Z,16.92
2018-07-14T02:11:54.534Z,16.95
2018-07-14T02:12:54.519Z,16.95
2018-07-14T02:13:54.548Z,16.86
2018-07-14T02:14:54.490Z,16.83
2018-07-14T02:15:54.473Z,16.79
2018-07-14T02:16:54.459Z,16.80
2018-07-14T02:17:54.448Z,16.76
2018-07-14T02:18:54.432Z,16.74
2018-07-14T02:19:54.415Z,16.59
2018-07-14T02:20:54.408Z,16.64
2018-07-14T02:21:54.440Z,16.73
2018-07-14T02:22:54.370Z,16.66
2018-07-14T02:23:54.359Z,16.79
2018-07-14T02:24:54.340Z,16.62
2018-07-14T02:25:54.326Z,16.65
2018-07-14T02:26:54.316Z,16.69
2018-07-14T02:27:54.296Z,16.66
2018-07-14T02:28:54.290Z,16.76
2018-07-14T02:29:54.266Z,16.76
2018-07-14T02:30:54.253Z,16.69
2018-07-14T02:31:54.236Z,16.76
2018-07-14T02:32:54.223Z,16.77
2018-07-14T02:33:54.207Z,16.73
2018-07-14T02:34:54.197Z,16.68
2018-07-14T02:35:54.179Z,16.77
2018-07-14T02:36:54.163Z,16.80
2018-07-14T02:37:54.149Z,16.73
2018-07-14T02:38:54.140Z,16.76
2018-07-14T02:39:54.125Z,16.65
2018-07-14T02:40:54.111Z,16.66
2018-07-14T02:42:56.701Z,16.61
2018-07-14T02:43:55.272Z,16.68
2018-07-14T02:44:54.043Z,16.69
2018-07-14T02:45:54.028Z,16.64
2018-07-14T02:46:54.015Z,16.65
2018-07-14T02:47:54.000Z,16.76
2018-07-14T02:48:53.984Z,16.58
2018-07-14T02:49:53.968Z,16.57
2018-07-14T02:50:53.955Z,16.68
2018-07-14T02:51:53.937Z,16.66
2018-07-14T02:52:53.923Z,16.68
2018-07-14T02:53:53.905Z,16.66
2018-07-14T02:54:53.896Z,16.66
2018-07-14T02:55:53.878Z,16.57
2018-07-14T02:56:53.863Z,16.62
2018-07-14T02:57:53.849Z,16.66
2018-07-14T02:58:53.842Z,16.62
2018-07-14T02:59:53.933Z,16.61
2018-07-14T03:00:53.800Z,16.61
2018-07-14T03:02:38.160Z,16.47
2018-07-14T03:03:38.155Z,16.51
2018-07-14T03:04:38.534Z,16.47
2018-07-14T03:06:32.304Z,16.44
2018-07-14T03:07:32.288Z,16.37
2018-07-14T03:08:32.274Z,16.46
2018-07-14T03:09:32.260Z,16.54
2018-07-14T03:10:32.254Z,16.43
2018-07-14T03:11:32.229Z,16.39
2018-07-14T03:12:32.210Z,16.37
2018-07-14T03:13:32.197Z,16.37
2018-07-14T03:14:32.182Z,16.34
2018-07-14T03:15:32.166Z,16.40
2018-07-14T03:16:32.149Z,16.37
2018-07-14T03:17:32.137Z,16.34
2018-07-14T03:18:32.120Z,16.39
2018-07-14T03:19:32.221Z,16.41
2018-07-14T03:20:32.090Z,16.49
2018-07-14T03:21:32.076Z,16.57
2018-07-14T03:22:32.061Z,16.44
2018-07-14T03:23:32.054Z,16.47
2018-07-14T03:24:32.037Z,16.49
2018-07-14T03:26:21.609Z,16.68
2018-07-14T03:27:21.583Z,16.55
2018-07-14T03:28:21.565Z,16.64
2018-07-14T03:29:21.550Z,16.69
2018-07-14T03:30:21.535Z,16.66
2018-07-14T03:31:21.521Z,16.64
2018-07-14T03:32:54.714Z,16.66
2018-07-14T03:33:21.509Z,16.58
2018-07-14T03:34:21.476Z,16.59
2018-07-14T03:35:21.460Z,16.59
2018-07-14T03:36:21.449Z,16.65
2018-07-14T03:37:21.427Z,16.65
2018-07-14T03:38:21.414Z,16.62
2018-07-14T03:39:21.398Z,16.58
2018-07-14T03:40:21.383Z,16.66
2018-07-14T03:41:21.376Z,16.57
2018-07-14T03:42:21.354Z,16.62
2018-07-14T03:43:21.385Z,16.69
2018-07-14T03:44:21.322Z,16.62
2018-07-14T03:45:21.309Z,16.62
2018-07-14T03:46:21.293Z,16.62
2018-07-14T03:47:21.277Z,16.72
2018-07-14T03:48:21.266Z,16.74
2018-07-14T03:49:21.264Z,16.65
2018-07-14T03:50:21.232Z,16.58
2018-07-14T03:51:22.228Z,16.66
2018-07-14T03:53:10.082Z,16.69
2018-07-14T03:54:10.069Z,16.69
2018-07-14T03:55:10.053Z,16.79
2018-07-14T03:58:33.189Z,16.80
2018-07-14T04:05:03.344Z,16.66
2018-07-14T04:06:03.326Z,16.77
2018-07-14T04:07:03.328Z,16.79
2018-07-14T04:08:03.303Z,16.74
2018-07-14T04:09:03.278Z,16.72
2018-07-14T04:10:03.263Z,16.74
2018-07-14T04:11:36.457Z,16.76
2018-07-14T04:12:03.233Z,16.77
2018-07-14T04:13:03.216Z,16.69
2018-07-14T04:14:03.203Z,16.73
2018-07-14T04:15:03.188Z,16.72
2018-07-14T04:16:03.172Z,16.72
2018-07-14T04:17:03.156Z,16.77
2018-07-14T04:18:03.146Z,16.84
2018-07-14T04:19:03.128Z,16.79
2018-07-14T04:20:03.113Z,16.91
2018-07-14T04:21:03.101Z,16.84
2018-07-14T04:22:03.080Z,16.87
2018-07-14T04:23:03.066Z,16.87
2018-07-14T04:31:55.093Z,16.97
2018-07-14T04:32:21.795Z,16.92
2018-07-14T04:33:21.785Z,16.98
2018-07-14T04:34:21.763Z,17.05
2018-07-14T04:35:21.747Z,17.07
2018-07-14T04:36:54.960Z,17.07
2018-07-14T04:37:21.718Z,17.14
2018-07-14T04:38:21.704Z,17.23
2018-07-14T04:39:21.690Z,17.28
2018-07-14T04:40:21.674Z,17.20
2018-07-14T04:41:21.658Z,17.31
2018-07-14T04:54:06.443Z,17.14
2018-07-14T05:03:07.681Z,17.31
2018-07-14T05:03:34.462Z,17.31
2018-07-14T05:09:25.772Z,17.39
2018-07-14T06:09:29.703Z,23.79
2018-07-14T06:11:02.907Z,23.45
2018-07-14T06:11:29.679Z,24.11
2018-07-14T06:12:29.672Z,24.63
2018-07-14T06:13:29.659Z,24.81
2018-07-14T06:14:29.649Z,24.59
2018-07-14T06:15:29.640Z,24.50
2018-07-14T06:16:29.633Z,24.29
2018-07-14T06:17:29.625Z,24.56
2018-07-14T06:18:29.613Z,24.97
2018-07-14T06:19:29.705Z,25.51
2018-07-14T06:20:29.597Z,25.89
2018-07-14T06:21:29.589Z,26.16
2018-07-14T06:22:29.582Z,26.37
2018-07-14T06:23:29.578Z,25.91
2018-07-14T06:24:29.567Z,26.15
2018-07-14T06:25:29.565Z,25.96
2018-07-14T06:26:29.549Z,25.81
2018-07-14T06:27:29.544Z,25.98
2018-07-14T06:28:29.537Z,26.42
2018-07-14T06:29:29.538Z,26.49
2018-07-14T06:30:29.573Z,25.73
2018-07-14T06:31:29.518Z,25.91
2018-07-14T06:32:29.511Z,25.89
2018-07-14T06:33:29.505Z,25.52
2018-07-14T06:34:29.500Z,25.41
2018-07-14T06:35:29.492Z,25.78
2018-07-14T06:36:29.492Z,26.10
2018-07-14T06:37:29.484Z,26.23
2018-07-14T06:38:29.480Z,26.22
2018-07-14T06:39:29.472Z,26.44
2018-07-14T06:40:29.461Z,26.70
2018-07-14T06:41:29.465Z,26.81
2018-07-14T06:42:29.451Z,27.04
2018-07-14T06:43:29.447Z,26.08
2018-07-14T06:44:29.447Z,25.40
2018-07-14T06:45:29.459Z,25.25
2018-07-14T06:46:29.433Z,25.43
2018-07-14T06:47:29.430Z,25.74
2018-07-14T06:48:29.429Z,26.23
2018-07-14T06:49:29.427Z,25.99
2018-07-14T06:50:29.422Z,25.39
2018-07-14T06:51:29.411Z,25.40
2018-07-14T06:52:29.407Z,25.85
2018-07-14T06:53:29.401Z,26.18
2018-07-14T06:54:29.401Z,26.52
2018-07-14T06:55:29.393Z,26.53
2018-07-14T06:56:29.390Z,26.81
2018-07-14T06:57:29.387Z,27.05
2018-07-14T06:58:29.388Z,27.28
2018-07-14T06:59:29.377Z,27.53
2018-07-14T07:00:29.377Z,27.53
2018-07-14T07:01:29.379Z,27.71
2018-07-14T07:02:29.368Z,27.25
2018-07-14T07:03:29.446Z,27.29
2018-07-14T07:04:29.362Z,27.16
2018-07-14T07:05:29.367Z,26.63
2018-07-14T07:06:29.356Z,26.53
2018-07-14T07:07:29.354Z,26.42
2018-07-14T07:08:29.351Z,26.36
2018-07-14T07:09:29.350Z,26.49
2018-07-14T07:10:29.354Z,26.74
2018-07-14T07:11:29.347Z,26.83
2018-07-14T07:12:29.343Z,27.10
2018-07-14T07:13:29.344Z,26.81
2018-07-14T07:14:29.348Z,26.29
2018-07-14T07:15:29.338Z,26.37
2018-07-14T07:16:29.333Z,26.51
2018-07-14T07:17:29.332Z,26.70
2018-07-14T07:18:29.329Z,26.96
2018-07-14T07:19:29.328Z,27.18
2018-07-14T07:20:29.325Z,26.82
2018-07-14T07:21:29.429Z,27.23
2018-07-14T07:22:29.380Z,27.13
2018-07-14T07:23:29.316Z,26.92
2018-07-14T07:24:29.313Z,26.71
2018-07-14T07:25:29.312Z,26.36
2018-07-14T07:26:29.307Z,25.85
2018-07-14T07:27:29.305Z,25.86
2018-07-14T07:28:29.303Z,25.73
2018-07-14T07:29:29.306Z,25.77
2018-07-14T07:30:29.332Z,26.15
2018-07-14T07:31:29.297Z,26.11
2018-07-14T07:32:29.295Z,26.06
2018-07-14T07:33:29.297Z,25.54
2018-07-14T07:34:29.315Z,25.36
2018-07-14T07:35:29.290Z,24.93
2018-07-14T07:36:29.289Z,24.88
2018-07-14T07:37:29.286Z,24.71
2018-07-14T07:38:29.293Z,25.01
2018-07-14T07:39:29.290Z,25.03
2018-07-14T07:40:29.296Z,25.33
2018-07-14T07:41:29.277Z,25.34
2018-07-14T07:42:29.374Z,25.24
2018-07-14T07:43:29.270Z,25.25
2018-07-14T07:44:29.283Z,24.94
2018-07-14T07:45:29.266Z,24.86
2018-07-14T07:46:29.259Z,24.43
2018-07-14T07:47:29.259Z,24.82
2018-07-14T07:48:29.260Z,25.14
2018-07-14T07:49:29.252Z,25.21
2018-07-14T07:50:29.249Z,25.18
2018-07-14T07:51:29.250Z,24.94
2018-07-14T07:52:29.242Z,24.85
2018-07-14T07:53:29.238Z,25.04
2018-07-14T07:54:29.232Z,24.84
2018-07-14T07:55:29.232Z,24.77
2018-07-14T07:56:29.224Z,24.75
2018-07-14T07:57:29.227Z,24.65
2018-07-14T07:58:29.213Z,24.69
2018-07-14T07:59:29.209Z,24.78
2018-07-14T08:00:29.203Z,24.44
2018-07-14T08:01:29.199Z,24.28
2018-07-14T08:02:29.200Z,24.41
2018-07-14T08:03:29.187Z,24.38
2018-07-14T08:04:29.185Z,24.36
2018-07-14T08:05:29.179Z,24.34
2018-07-14T08:06:29.170Z,24.55
2018-07-14T08:07:29.163Z,24.24
2018-07-14T08:08:29.158Z,24.18
2018-07-14T08:09:29.156Z,24.13
2018-07-14T08:10:29.160Z,23.88
2018-07-14T08:11:29.139Z,24.10
2018-07-14T08:12:29.140Z,24.06
2018-07-14T08:13:29.125Z,24.36
2018-07-14T08:14:29.120Z,24.56
2018-07-14T08:15:29.120Z,24.43
2018-07-14T08:16:29.106Z,24.16
2018-07-14T08:17:29.108Z,24.00
2018-07-14T08:18:29.107Z,24.04
2018-07-14T08:19:29.116Z,24.14
2018-07-14T08:20:29.090Z,24.32
2018-07-14T08:21:29.072Z,24.40
2018-07-14T08:22:29.067Z,24.37
2018-07-14T08:23:29.067Z,24.40
2018-07-14T08:24:29.064Z,24.53
2018-07-14T08:25:29.061Z,24.13
2018-07-14T08:26:29.038Z,23.99
2018-07-14T08:27:29.114Z,24.22
2018-07-14T08:28:29.024Z,24.16
2018-07-14T08:29:29.017Z,24.11
2018-07-14T08:30:29.010Z,24.16
2018-07-14T08:31:29.002Z,23.91
2018-07-14T08:32:29.091Z,24.10
2018-07-14T08:33:28.992Z,24.40
2018-07-14T08:34:28.981Z,24.44
2018-07-14T08:35:28.979Z,24.18
2018-07-14T08:36:28.969Z,24.28
2018-07-14T08:37:28.959Z,24.36
2018-07-14T08:38:28.952Z,24.53
2018-07-14T08:39:28.943Z,24.62
2018-07-14T08:40:28.944Z,24.53
2018-07-14T08:41:28.928Z,24.66
2018-07-14T08:42:28.923Z,24.75
2018-07-14T08:43:28.911Z,24.68
2018-07-14T08:44:28.905Z,24.66
2018-07-14T08:45:28.900Z,24.78
2018-07-14T08:46:28.896Z,24.62
2018-07-14T08:47:28.881Z,24.71
2018-07-14T08:48:28.877Z,24.69
2018-07-14T08:49:28.868Z,24.65
2018-07-14T08:50:28.864Z,24.86
2018-07-14T08:51:28.915Z,24.94
2018-07-14T08:52:28.852Z,25.21
2018-07-14T08:53:28.844Z,25.14
2018-07-14T08:54:28.834Z,25.01
2018-07-14T08:55:28.826Z,25.11
2018-07-14T08:56:28.827Z,25.01
2018-07-14T08:57:28.806Z,25.18
2018-07-14T08:58:28.803Z,25.34
2018-07-14T08:59:28.806Z,25.39
2018-07-14T09:00:28.784Z,25.49
2018-07-14T09:01:28.782Z,25.43
2018-07-14T09:02:28.765Z,25.67
2018-07-14T09:03:28.766Z,25.76
2018-07-14T09:04:28.750Z,25.93
2018-07-14T09:05:28.752Z,25.78
2018-07-14T09:06:28.747Z,25.71
2018-07-14T09:07:28.728Z,25.46
2018-07-14T09:08:28.720Z,25.58
2018-07-14T09:09:28.716Z,25.52
2018-07-14T09:10:28.713Z,25.62
2018-07-14T09:11:28.707Z,25.71
2018-07-14T09:12:28.692Z,25.36
2018-07-14T09:13:28.688Z,25.01
2018-07-14T09:14:28.696Z,24.82
2018-07-14T09:15:28.678Z,25.16
2018-07-14T09:16:28.719Z,25.24
2018-07-14T09:17:28.664Z,25.25
2018-07-14T09:18:28.654Z,25.26
2018-07-14T09:19:28.651Z,25.59
2018-07-14T09:20:28.654Z,25.55
2018-07-14T09:21:28.639Z,25.66
2018-07-14T09:22:28.633Z,25.61
2018-07-14T09:23:28.627Z,25.86
2018-07-14T09:24:28.632Z,25.77
2018-07-14T09:25:28.615Z,25.91
2018-07-14T09:26:28.609Z,25.96
2018-07-14T09:27:28.606Z,25.95
2018-07-14T09:28:28.611Z,26.22
2018-07-14T09:29:28.595Z,26.18
2018-07-14T09:30:28.598Z,25.92
2018-07-14T09:31:28.605Z,25.91
2018-07-14T09:32:28.605Z,25.66
2018-07-14T09:33:28.582Z,25.63
2018-07-14T09:34:28.584Z,25.89
2018-07-14T09:35:28.579Z,25.91
2018-07-14T09:36:28.559Z,26.26
2018-07-14T09:37:28.563Z,26.26
2018-07-14T09:38:28.548Z,26.24
2018-07-14T09:39:28.553Z,26.15
2018-07-14T09:40:28.540Z,26.03
2018-07-14T09:41:28.550Z,26.34
2018-07-14T09:42:28.529Z,26.48
2018-07-14T09:43:28.523Z,26.41
2018-07-14T09:44:28.574Z,26.19
2018-07-14T09:45:28.527Z,26.08
2018-07-14T09:46:28.660Z,26.34
2018-07-14T09:47:28.507Z,26.41
2018-07-14T09:48:28.512Z,26.53
2018-07-14T09:49:28.501Z,26.73
2018-07-14T09:50:28.492Z,26.96
2018-07-14T09:51:28.497Z,27.11
2018-07-14T09:52:28.506Z,27.40
2018-07-14T09:53:28.483Z,27.33
2018-07-14T09:54:28.477Z,27.38
2018-07-14T09:55:28.475Z,27.57
2018-07-14T09:56:28.470Z,27.66
2018-07-14T09:57:28.496Z,27.81
2018-07-14T09:58:28.470Z,27.53
2018-07-14T09:59:28.472Z,27.48
2018-07-14T10:00:28.462Z,27.60
2018-07-14T10:01:28.449Z,27.71
2018-07-14T10:02:28.454Z,27.95
2018-07-14T10:03:28.514Z,28.00
2018-07-14T10:04:28.446Z,28.12
2018-07-14T10:05:28.445Z,28.34
2018-07-14T10:06:28.430Z,28.49
2018-07-14T10:07:28.427Z,28.78
2018-07-14T10:08:28.424Z,29.05
2018-07-14T10:09:28.424Z,29.16
2018-07-14T10:10:28.421Z,28.96
2018-07-14T10:11:28.434Z,29.20
2018-07-14T10:12:28.410Z,29.79
2018-07-14T10:13:28.410Z,30.20
2018-07-14T10:14:28.421Z,30.49
2018-07-14T10:15:28.405Z,30.81
2018-07-14T10:16:28.405Z,30.96
2018-07-14T10:17:28.426Z,31.18
2018-07-14T10:18:28.405Z,30.98
2018-07-14T10:19:28.412Z,30.56
2018-07-14T10:20:28.404Z,30.02
2018-07-14T10:21:28.406Z,29.69
2018-07-14T10:22:28.404Z,29.58
2018-07-14T10:23:28.404Z,29.00
2018-07-14T10:24:28.418Z,28.96
2018-07-14T10:25:28.461Z,28.70
2018-07-14T10:26:28.410Z,28.43
2018-07-14T10:27:28.405Z,27.94
2018-07-14T10:28:28.407Z,28.15
2018-07-14T10:29:28.468Z,28.57
2018-07-14T10:30:28.409Z,28.90
2018-07-14T10:31:28.404Z,28.15
2018-07-14T10:32:28.406Z,27.97
2018-07-14T10:33:28.425Z,27.85
2018-07-14T10:34:28.402Z,27.55
2018-07-14T10:35:28.407Z,27.37
2018-07-14T10:36:28.400Z,27.37
2018-07-14T10:37:28.400Z,27.63
2018-07-14T10:38:28.407Z,27.64
2018-07-14T10:39:28.400Z,27.79
2018-07-14T10:40:28.401Z,27.55
2018-07-14T10:41:28.395Z,27.98
2018-07-14T10:42:28.474Z,28.49
2018-07-14T10:43:28.400Z,28.37
2018-07-14T10:44:28.393Z,28.19
2018-07-14T10:45:28.397Z,28.84
2018-07-14T10:46:28.414Z,29.22
2018-07-14T10:47:28.404Z,29.65
2018-07-14T10:48:28.392Z,29.77
2018-07-14T10:49:28.390Z,29.64
2018-07-14T10:50:28.387Z,30.08
2018-07-14T10:51:28.454Z,29.98
2018-07-14T10:52:28.387Z,29.99
2018-07-14T10:53:28.390Z,30.05
2018-07-14T10:54:28.390Z,30.02
2018-07-14T10:55:28.391Z,30.01
2018-07-14T10:56:28.392Z,30.21
2018-07-14T10:57:28.393Z,29.44
2018-07-14T10:58:28.397Z,29.52
2018-07-14T10:59:28.397Z,29.69
2018-07-14T11:00:28.396Z,29.49
2018-07-14T11:01:28.404Z,29.46
2018-07-14T11:02:28.402Z,29.40
2018-07-14T11:03:28.406Z,29.68
2018-07-14T11:04:28.437Z,29.94
2018-07-14T11:05:28.409Z,30.21
2018-07-14T11:06:28.420Z,30.54
2018-07-14T11:07:28.413Z,30.29
2018-07-14T11:08:28.417Z,30.59
2018-07-14T11:09:28.420Z,30.51
2018-07-14T11:10:28.440Z,30.62
2018-07-14T11:11:28.426Z,31.17
2018-07-14T11:12:28.453Z,31.07
2018-07-14T11:13:28.461Z,31.30
2018-07-14T11:14:28.439Z,31.64
2018-07-14T11:15:28.445Z,31.89
2018-07-14T11:16:28.446Z,31.79
2018-07-14T11:17:28.453Z,31.44
2018-07-14T11:18:28.456Z,31.04
2018-07-14T11:19:28.469Z,30.96
2018-07-14T11:20:28.474Z,31.25
2018-07-14T11:21:28.472Z,31.02
2018-07-14T11:22:28.477Z,31.10
2018-07-14T11:23:28.483Z,31.08
2018-07-14T11:24:28.491Z,30.52
2018-07-14T11:25:28.493Z,29.87
2018-07-14T11:26:28.496Z,29.43
2018-07-14T11:27:28.503Z,29.67
2018-07-14T11:28:28.520Z,30.02
2018-07-14T11:29:28.514Z,30.24
2018-07-14T11:30:28.535Z,30.10
2018-07-14T11:31:28.523Z,29.55
2018-07-14T11:32:28.536Z,29.25
2018-07-14T11:33:28.543Z,29.28
2018-07-14T11:34:28.649Z,29.47
2018-07-14T11:35:28.542Z,29.18
2018-07-14T11:36:28.550Z,29.30
2018-07-14T11:37:28.551Z,29.24
2018-07-14T11:38:28.562Z,29.34
2018-07-14T11:39:28.568Z,29.25
2018-07-14T11:40:28.561Z,28.84
2018-07-14T11:41:28.563Z,28.09
2018-07-14T11:42:28.566Z,28.00
2018-07-14T11:43:28.570Z,28.33
2018-07-14T11:44:28.584Z,28.87
2018-07-14T11:45:28.574Z,29.24
2018-07-14T11:46:28.583Z,29.24
2018-07-14T11:47:28.598Z,29.42
2018-07-14T11:48:28.582Z,29.65
2018-07-14T11:49:28.592Z,29.42
2018-07-14T11:50:28.584Z,29.44
2018-07-14T11:51:28.595Z,29.76
2018-07-14T11:52:28.590Z,30.03
2018-07-14T11:53:28.608Z,30.13
2018-07-14T11:54:28.598Z,29.87
2018-07-14T11:55:28.596Z,29.71
2018-07-14T11:56:28.597Z,29.69
2018-07-14T11:57:28.601Z,29.57
2018-07-14T11:58:28.596Z,29.35
2018-07-14T11:59:28.596Z,29.22
2018-07-14T12:00:28.596Z,29.16
2018-07-14T12:01:28.704Z,28.87
2018-07-14T12:02:28.599Z,28.77
2018-07-14T12:03:28.597Z,28.55
2018-07-14T12:04:28.602Z,28.43
2018-07-14T12:05:28.606Z,28.15
2018-07-14T12:06:28.592Z,28.15
2018-07-14T12:07:28.596Z,27.97
2018-07-14T12:08:28.596Z,27.64
2018-07-14T12:09:28.587Z,27.52
2018-07-14T12:10:28.587Z,27.40
2018-07-14T12:11:28.582Z,27.38
2018-07-14T12:12:28.584Z,27.19
2018-07-14T12:13:28.638Z,27.34
2018-07-14T12:14:28.573Z,27.55
2018-07-14T12:15:28.568Z,27.72
2018-07-14T12:16:28.567Z,27.85
2018-07-14T12:17:28.564Z,28.00
2018-07-14T12:18:28.561Z,27.81
2018-07-14T12:19:28.556Z,27.68
2018-07-14T12:20:28.553Z,27.47
2018-07-14T12:21:28.550Z,27.04
2018-07-14T12:22:28.553Z,26.78
2018-07-14T12:23:28.546Z,26.81
2018-07-14T12:24:28.538Z,26.63
2018-07-14T12:25:28.532Z,26.89
2018-07-14T12:26:28.533Z,27.03
2018-07-14T12:27:28.528Z,27.19
2018-07-14T12:28:28.536Z,27.45
2018-07-14T12:29:28.521Z,27.52
2018-07-14T12:30:28.533Z,27.61
2018-07-14T12:31:28.501Z,27.61
2018-07-14T12:32:28.504Z,27.57
2018-07-14T12:33:28.500Z,27.30
2018-07-14T12:34:28.485Z,27.23
2018-07-14T12:36:12.512Z,26.91
2018-07-14T12:37:12.505Z,26.83
2018-07-14T12:38:12.499Z,26.93
2018-07-14T12:39:12.496Z,27.04
2018-07-14T12:40:12.488Z,26.93
2018-07-14T12:41:12.486Z,27.11
2018-07-14T12:42:12.495Z,27.19
2018-07-14T12:43:12.477Z,27.18
2018-07-14T12:44:12.467Z,27.03
2018-07-14T12:45:12.456Z,27.11
2018-07-14T12:46:12.459Z,27.11
2018-07-14T12:47:12.451Z,27.18
2018-07-14T12:48:12.488Z,27.23
2018-07-14T12:49:12.446Z,27.19
2018-07-14T12:50:12.433Z,27.05
2018-07-14T12:51:12.431Z,27.22
2018-07-14T12:52:58.915Z,27.52
2018-07-14T12:53:58.881Z,27.35
2018-07-14T12:54:58.877Z,27.08
2018-07-14T12:55:58.871Z,26.81
2018-07-14T12:56:58.866Z,26.82
2018-07-14T12:57:58.855Z,26.83
2018-07-14T12:59:01.469Z,26.96
2018-07-14T12:59:58.893Z,27.04
2018-07-14T13:00:58.846Z,27.01
2018-07-14T13:01:58.838Z,26.98
2018-07-14T13:02:58.921Z,26.83
2018-07-14T13:03:58.823Z,26.91
2018-07-14T13:04:58.824Z,27.01
2018-07-14T13:05:58.800Z,26.91
2018-07-14T13:06:58.797Z,27.03
2018-07-14T13:07:58.782Z,27.11
2018-07-14T13:08:58.778Z,27.22
2018-07-14T13:09:58.772Z,27.23
2018-07-14T13:10:58.760Z,27.20
2018-07-14T13:11:58.757Z,27.25
2018-07-14T13:12:58.758Z,27.26
2018-07-14T13:13:58.743Z,27.20
2018-07-14T13:14:58.749Z,27.26
2018-07-14T13:15:58.844Z,26.91
2018-07-14T13:16:58.725Z,26.83
2018-07-14T13:17:58.714Z,26.83
2018-07-14T13:18:58.756Z,26.85
2018-07-14T13:19:58.707Z,27.07
2018-07-14T13:20:58.701Z,27.01
2018-07-14T13:21:58.689Z,27.01
2018-07-14T13:22:58.676Z,26.83
2018-07-14T13:23:58.667Z,26.91
2018-07-14T13:24:58.660Z,27.10
2018-07-14T13:25:58.663Z,27.13
2018-07-14T13:26:58.645Z,27.07
2018-07-14T13:27:58.638Z,27.08
2018-07-14T13:28:58.660Z,27.01
2018-07-14T13:29:58.626Z,26.93
2018-07-14T13:30:58.634Z,26.81
2018-07-14T13:31:58.618Z,26.73
2018-07-14T13:32:58.600Z,26.55
2018-07-14T13:33:58.592Z,26.45
2018-07-14T13:34:58.586Z,26.55
2018-07-14T13:35:58.576Z,26.42
2018-07-14T13:36:58.568Z,26.27
2018-07-14T13:37:58.573Z,26.39
2018-07-14T13:38:58.567Z,26.53
2018-07-14T13:39:58.546Z,26.70
2018-07-14T13:40:58.539Z,26.78
2018-07-14T13:41:58.534Z,26.73
2018-07-14T13:42:58.520Z,26.79
2018-07-14T13:43:58.512Z,26.82
2018-07-14T13:44:58.509Z,26.88
2018-07-14T13:45:58.500Z,27.05
2018-07-14T13:46:58.488Z,26.97
2018-07-14T13:47:58.480Z,26.85
2018-07-14T13:48:58.497Z,26.66
2018-07-14T13:49:58.482Z,26.70
2018-07-14T13:50:58.458Z,26.74
2018-07-14T13:51:58.448Z,26.71
2018-07-14T13:52:58.492Z,26.45
2018-07-14T13:53:58.456Z,26.18
2018-07-14T13:54:58.445Z,26.29
2018-07-14T13:55:58.415Z,26.30
2018-07-14T13:56:58.410Z,26.46
2018-07-14T13:57:58.401Z,26.61
2018-07-14T13:58:58.392Z,26.86
2018-07-14T13:59:58.382Z,26.92
2018-07-14T14:00:58.392Z,27.07
2018-07-14T14:01:58.366Z,27.00
2018-07-14T14:02:58.363Z,27.05
2018-07-14T14:03:58.351Z,27.00
2018-07-14T14:04:58.349Z,27.11
2018-07-14T14:05:58.335Z,27.07
2018-07-14T14:06:58.328Z,27.03
2018-07-14T14:07:58.325Z,27.03
2018-07-14T14:08:58.313Z,27.04
2018-07-14T14:09:58.304Z,26.89
2018-07-14T14:10:58.302Z,26.70
2018-07-14T14:11:58.286Z,26.67
2018-07-14T14:12:58.281Z,26.85
2018-07-14T14:13:58.269Z,26.96
2018-07-14T14:14:58.267Z,27.05
2018-07-14T14:15:58.252Z,27.10
2018-07-14T14:16:58.249Z,27.04
2018-07-14T14:17:58.253Z,27.10
2018-07-14T14:18:58.238Z,27.18
2018-07-14T14:19:58.243Z,27.18
2018-07-14T14:20:58.212Z,27.35
2018-07-14T14:21:58.205Z,27.40
2018-07-14T14:22:58.195Z,27.41
2018-07-14T14:23:58.187Z,27.23
2018-07-14T14:24:58.183Z,27.34
2018-07-14T14:25:58.172Z,27.22
2018-07-14T14:26:58.171Z,27.29
2018-07-14T14:27:58.155Z,27.28
2018-07-14T14:28:58.145Z,27.18
2018-07-14T14:29:58.155Z,27.28
2018-07-14T14:30:58.139Z,27.33
2018-07-14T14:31:58.121Z,27.20
2018-07-14T14:32:58.151Z,27.18
2018-07-14T14:33:58.104Z,27.08
2018-07-14T14:34:58.103Z,27.18
2018-07-14T14:35:58.087Z,27.30
2018-07-14T14:36:58.079Z,27.25